sensor_id;sensor_type;location;lat;lon;timestamp;temperature;humidity
26803;DHT22;14378;51.796;5.808;2022-08-04T00:03:23;22.80;99.90
26803;DHT22;14378;51.796;5.808;2022-08-04T00:05:43;22.60;99.90
26803;DHT22;14378;51.796;5.808;2022-08-04T00:10:05;22.60;99.90
26803;DHT22;14378;51.796;5.808;2022-08-04T00:12:11;22.50;99.90
26803;DHT22;14378;51.796;5.808;2022-08-04T00:14:20;22.50;99.90
26803;DHT22;14378;51.796;5.808;2022-08-04T00:16:35;22.50;99.90
26803;DHT22;14378;51.796;5.808;2022-08-04T00:18:41;22.50;99.90
26803;DHT22;14378;51.796;5.808;2022-08-04T00:20:48;22.40;99.90
26803;DHT22;14378;51.796;5.808;2022-08-04T00:22:52;22.40;99.90
26803;DHT22;14378;51.796;5.808;2022-08-04T00:24:54;22.40;99.90
26803;DHT22;14378;51.796;5.808;2022-08-04T00:26:56;22.30;99.90
26803;DHT22;14378;51.796;5.808;2022-08-04T00:28:59;22.30;99.90
26803;DHT22;14378;51.796;5.808;2022-08-04T00:31:04;22.30;99.90
26803;DHT22;14378;51.796;5.808;2022-08-04T00:33:06;22.30;99.90
26803;DHT22;14378;51.796;5.808;2022-08-04T00:35:13;22.30;99.90
26803;DHT22;14378;51.796;5.808;2022-08-04T00:37:20;22.30;99.90
26803;DHT22;14378;51.796;5.808;2022-08-04T00:39:23;22.20;99.90
26803;DHT22;14378;51.796;5.808;2022-08-04T00:41:26;22.20;99.90
26803;DHT22;14378;51.796;5.808;2022-08-04T00:50:51;22.10;99.90
26803;DHT22;14378;51.796;5.808;2022-08-04T00:56:02;22.10;99.90
26803;DHT22;14378;51.796;5.808;2022-08-04T01:00:43;22.10;99.90
26803;DHT22;14378;51.796;5.808;2022-08-04T01:13:19;21.90;99.90
26803;DHT22;14378;51.796;5.808;2022-08-04T01:18:07;21.80;99.90
26803;DHT22;14378;51.796;5.808;2022-08-04T01:20:09;21.80;99.90
26803;DHT22;14378;51.796;5.808;2022-08-04T01:27:33;21.80;99.90
26803;DHT22;14378;51.796;5.808;2022-08-04T01:29:42;21.80;99.90
26803;DHT22;14378;51.796;5.808;2022-08-04T01:34:05;21.80;99.90
26803;DHT22;14378;51.796;5.808;2022-08-04T01:36:08;21.80;99.90
26803;DHT22;14378;51.796;5.808;2022-08-04T01:38:18;21.80;99.90
26803;DHT22;14378;51.796;5.808;2022-08-04T01:40:25;21.80;99.90
26803;DHT22;14378;51.796;5.808;2022-08-04T01:42:31;21.80;99.90
26803;DHT22;14378;51.796;5.808;2022-08-04T01:44:35;21.80;99.90
26803;DHT22;14378;51.796;5.808;2022-08-04T01:46:36;21.80;99.90
26803;DHT22;14378;51.796;5.808;2022-08-04T01:48:39;21.80;99.90
26803;DHT22;14378;51.796;5.808;2022-08-04T01:50:42;21.80;99.90
26803;DHT22;14378;51.796;5.808;2022-08-04T01:52:50;21.90;99.90
26803;DHT22;14378;51.796;5.808;2022-08-04T01:54:52;21.90;99.90
26803;DHT22;14378;51.796;5.808;2022-08-04T01:56:55;21.90;99.90
26803;DHT22;14378;51.796;5.808;2022-08-04T01:58:57;21.90;99.90
26803;DHT22;14378;51.796;5.808;2022-08-04T02:03:05;22.00;99.90
26803;DHT22;14378;51.796;5.808;2022-08-04T02:05:09;22.00;99.90
26803;DHT22;14378;51.796;5.808;2022-08-04T02:07:39;22.00;99.90
26803;DHT22;14378;51.796;5.808;2022-08-04T02:10:03;22.00;99.90
26803;DHT22;14378;51.796;5.808;2022-08-04T02:12:31;22.00;99.90
26803;DHT22;14378;51.796;5.808;2022-08-04T02:16:48;22.00;99.90
26803;DHT22;14378;51.796;5.808;2022-08-04T02:21:05;22.00;99.90
26803;DHT22;14378;51.796;5.808;2022-08-04T02:23:37;22.10;99.90
26803;DHT22;14378;51.796;5.808;2022-08-04T02:25:59;22.00;99.90
26803;DHT22;14378;51.796;5.808;2022-08-04T02:31:07;22.10;99.90
26803;DHT22;14378;51.796;5.808;2022-08-04T02:33:18;22.10;99.90
26803;DHT22;14378;51.796;5.808;2022-08-04T02:35:26;22.00;99.90
26803;DHT22;14378;51.796;5.808;2022-08-04T02:37:30;22.10;99.90
26803;DHT22;14378;51.796;5.808;2022-08-04T02:39:34;22.10;99.90
26803;DHT22;14378;51.796;5.808;2022-08-04T02:41:36;22.10;99.90
26803;DHT22;14378;51.796;5.808;2022-08-04T02:43:41;22.10;99.90
26803;DHT22;14378;51.796;5.808;2022-08-04T02:45:45;22.10;99.90
26803;DHT22;14378;51.796;5.808;2022-08-04T02:47:50;22.10;99.90
26803;DHT22;14378;51.796;5.808;2022-08-04T02:49:53;22.10;99.90
26803;DHT22;14378;51.796;5.808;2022-08-04T02:51:56;22.20;99.90
26803;DHT22;14378;51.796;5.808;2022-08-04T02:53:59;22.20;99.90
26803;DHT22;14378;51.796;5.808;2022-08-04T02:56:01;22.20;99.90
26803;DHT22;14378;51.796;5.808;2022-08-04T02:58:03;22.20;99.90
26803;DHT22;14378;51.796;5.808;2022-08-04T03:00:06;22.20;99.90
26803;DHT22;14378;51.796;5.808;2022-08-04T03:05:06;22.20;99.90
26803;DHT22;14378;51.796;5.808;2022-08-04T03:38:29;22.20;99.90
26803;DHT22;14378;51.796;5.808;2022-08-04T03:43:31;22.20;99.90
26803;DHT22;14378;51.796;5.808;2022-08-04T04:00:59;22.10;99.90
26803;DHT22;14378;51.796;5.808;2022-08-04T04:03:53;22.20;99.90
26803;DHT22;14378;51.796;5.808;2022-08-04T04:06:25;22.20;99.90
26803;DHT22;14378;51.796;5.808;2022-08-04T04:10:42;22.10;99.90
26803;DHT22;14378;51.796;5.808;2022-08-04T04:15:24;22.20;99.90
26803;DHT22;14378;51.796;5.808;2022-08-04T04:19:52;22.20;99.90
26803;DHT22;14378;51.796;5.808;2022-08-04T04:29:44;22.00;99.90
26803;DHT22;14378;51.796;5.808;2022-08-04T04:52:57;21.90;99.90
26803;DHT22;14378;51.796;5.808;2022-08-04T04:55:25;21.90;99.90
26803;DHT22;14378;51.796;5.808;2022-08-04T04:57:33;21.90;99.90
26803;DHT22;14378;51.796;5.808;2022-08-04T04:59:38;21.90;99.90
26803;DHT22;14378;51.796;5.808;2022-08-04T05:14:43;22.00;99.90
26803;DHT22;14378;51.796;5.808;2022-08-04T05:16:58;22.10;99.90
26803;DHT22;14378;51.796;5.808;2022-08-04T05:19:23;22.10;99.90
26803;DHT22;14378;51.796;5.808;2022-08-04T05:21:39;22.10;99.90
26803;DHT22;14378;51.796;5.808;2022-08-04T05:23:47;22.10;99.90
26803;DHT22;14378;51.796;5.808;2022-08-04T05:26:00;22.20;99.90
26803;DHT22;14378;51.796;5.808;2022-08-04T05:28:17;22.20;99.90
26803;DHT22;14378;51.796;5.808;2022-08-04T05:30:20;22.30;99.90
26803;DHT22;14378;51.796;5.808;2022-08-04T05:32:37;22.40;99.90
26803;DHT22;14378;51.796;5.808;2022-08-04T05:34:44;22.40;99.90
26803;DHT22;14378;51.796;5.808;2022-08-04T05:37:16;22.40;99.90
26803;DHT22;14378;51.796;5.808;2022-08-04T05:39:35;22.50;99.90
26803;DHT22;14378;51.796;5.808;2022-08-04T05:41:37;22.50;99.90
26803;DHT22;14378;51.796;5.808;2022-08-04T05:43:42;22.60;99.90
26803;DHT22;14378;51.796;5.808;2022-08-04T05:45:46;22.60;99.90
26803;DHT22;14378;51.796;5.808;2022-08-04T05:47:50;22.70;99.90
26803;DHT22;14378;51.796;5.808;2022-08-04T05:49:55;22.70;99.90
26803;DHT22;14378;51.796;5.808;2022-08-04T05:51:59;22.80;99.90
26803;DHT22;14378;51.796;5.808;2022-08-04T05:54:01;22.80;99.90
26803;DHT22;14378;51.796;5.808;2022-08-04T05:56:04;22.90;99.90
26803;DHT22;14378;51.796;5.808;2022-08-04T05:58:09;22.90;99.90
26803;DHT22;14378;51.796;5.808;2022-08-04T06:00:11;22.90;99.90
26803;DHT22;14378;51.796;5.808;2022-08-04T06:02:14;23.00;99.90
26803;DHT22;14378;51.796;5.808;2022-08-04T06:04:17;23.10;99.90
26803;DHT22;14378;51.796;5.808;2022-08-04T06:06:20;23.20;99.90
26803;DHT22;14378;51.796;5.808;2022-08-04T06:08:23;23.20;99.90
26803;DHT22;14378;51.796;5.808;2022-08-04T06:10:25;23.30;99.90
26803;DHT22;14378;51.796;5.808;2022-08-04T06:12:35;23.30;99.90
26803;DHT22;14378;51.796;5.808;2022-08-04T06:14:42;23.30;99.90
26803;DHT22;14378;51.796;5.808;2022-08-04T06:16:45;23.40;99.90
26803;DHT22;14378;51.796;5.808;2022-08-04T06:18:48;23.50;99.90
26803;DHT22;14378;51.796;5.808;2022-08-04T06:20:51;23.50;99.90
26803;DHT22;14378;51.796;5.808;2022-08-04T06:22:56;23.60;99.90
26803;DHT22;14378;51.796;5.808;2022-08-04T06:25:00;23.70;99.90
26803;DHT22;14378;51.796;5.808;2022-08-04T06:27:03;23.80;99.90
26803;DHT22;14378;51.796;5.808;2022-08-04T06:29:06;23.90;99.90
26803;DHT22;14378;51.796;5.808;2022-08-04T06:31:18;24.00;99.90
26803;DHT22;14378;51.796;5.808;2022-08-04T06:33:38;24.00;99.90
26803;DHT22;14378;51.796;5.808;2022-08-04T06:35:39;24.10;99.90
26803;DHT22;14378;51.796;5.808;2022-08-04T06:37:42;24.10;99.90
26803;DHT22;14378;51.796;5.808;2022-08-04T06:39:45;24.20;99.90
26803;DHT22;14378;51.796;5.808;2022-08-04T06:41:54;24.20;99.90
26803;DHT22;14378;51.796;5.808;2022-08-04T06:44:07;24.30;99.90
26803;DHT22;14378;51.796;5.808;2022-08-04T06:46:09;24.30;99.90
26803;DHT22;14378;51.796;5.808;2022-08-04T06:48:13;24.40;99.90
26803;DHT22;14378;51.796;5.808;2022-08-04T06:50:17;24.40;99.90
26803;DHT22;14378;51.796;5.808;2022-08-04T06:52:19;24.50;99.90
26803;DHT22;14378;51.796;5.808;2022-08-04T06:54:21;24.50;99.90
26803;DHT22;14378;51.796;5.808;2022-08-04T06:56:23;24.60;99.90
26803;DHT22;14378;51.796;5.808;2022-08-04T06:58:27;24.60;99.90
26803;DHT22;14378;51.796;5.808;2022-08-04T07:00:31;24.70;99.90
26803;DHT22;14378;51.796;5.808;2022-08-04T07:02:40;24.80;99.90
26803;DHT22;14378;51.796;5.808;2022-08-04T07:04:43;24.90;99.90
26803;DHT22;14378;51.796;5.808;2022-08-04T07:06:49;25.00;99.90
26803;DHT22;14378;51.796;5.808;2022-08-04T07:08:54;25.10;99.90
26803;DHT22;14378;51.796;5.808;2022-08-04T07:11:01;25.10;99.90
26803;DHT22;14378;51.796;5.808;2022-08-04T07:13:02;25.20;99.90
26803;DHT22;14378;51.796;5.808;2022-08-04T07:15:06;25.40;99.90
26803;DHT22;14378;51.796;5.808;2022-08-04T07:17:08;25.50;99.90
26803;DHT22;14378;51.796;5.808;2022-08-04T07:19:13;25.60;99.90
26803;DHT22;14378;51.796;5.808;2022-08-04T07:21:23;25.70;99.90
26803;DHT22;14378;51.796;5.808;2022-08-04T07:23:26;25.80;99.90
26803;DHT22;14378;51.796;5.808;2022-08-04T07:25:28;26.00;99.90
26803;DHT22;14378;51.796;5.808;2022-08-04T07:27:32;26.10;99.90
26803;DHT22;14378;51.796;5.808;2022-08-04T07:29:35;26.20;99.90
26803;DHT22;14378;51.796;5.808;2022-08-04T07:31:36;26.40;99.90
26803;DHT22;14378;51.796;5.808;2022-08-04T07:33:40;26.50;99.90
26803;DHT22;14378;51.796;5.808;2022-08-04T07:35:42;26.70;99.90
26803;DHT22;14378;51.796;5.808;2022-08-04T07:37:47;26.80;99.90
26803;DHT22;14378;51.796;5.808;2022-08-04T07:39:48;26.90;99.90
26803;DHT22;14378;51.796;5.808;2022-08-04T07:41:50;27.00;99.90
26803;DHT22;14378;51.796;5.808;2022-08-04T07:43:51;27.20;99.90
26803;DHT22;14378;51.796;5.808;2022-08-04T07:45:54;27.30;99.90
26803;DHT22;14378;51.796;5.808;2022-08-04T07:47:55;27.40;99.90
26803;DHT22;14378;51.796;5.808;2022-08-04T07:49:57;27.50;99.90
26803;DHT22;14378;51.796;5.808;2022-08-04T07:52:01;27.60;99.90
26803;DHT22;14378;51.796;5.808;2022-08-04T07:54:04;27.60;99.90
26803;DHT22;14378;51.796;5.808;2022-08-04T07:56:05;27.70;99.90
26803;DHT22;14378;51.796;5.808;2022-08-04T07:58:07;27.70;99.90
26803;DHT22;14378;51.796;5.808;2022-08-04T08:00:10;27.70;99.90
26803;DHT22;14378;51.796;5.808;2022-08-04T08:02:15;27.60;99.90
26803;DHT22;14378;51.796;5.808;2022-08-04T08:04:20;27.60;99.90
26803;DHT22;14378;51.796;5.808;2022-08-04T08:06:23;27.70;99.90
26803;DHT22;14378;51.796;5.808;2022-08-04T08:08:24;27.70;99.90
26803;DHT22;14378;51.796;5.808;2022-08-04T08:10:26;27.70;99.90
26803;DHT22;14378;51.796;5.808;2022-08-04T08:12:28;27.70;99.90
26803;DHT22;14378;51.796;5.808;2022-08-04T08:14:30;27.70;99.90
26803;DHT22;14378;51.796;5.808;2022-08-04T08:16:34;27.80;99.90
26803;DHT22;14378;51.796;5.808;2022-08-04T08:18:35;27.80;99.90
26803;DHT22;14378;51.796;5.808;2022-08-04T08:20:37;27.90;99.90
26803;DHT22;14378;51.796;5.808;2022-08-04T08:22:38;28.00;99.90
26803;DHT22;14378;51.796;5.808;2022-08-04T08:24:40;28.10;99.90
26803;DHT22;14378;51.796;5.808;2022-08-04T08:26:41;28.20;99.90
26803;DHT22;14378;51.796;5.808;2022-08-04T08:28:43;28.20;99.90
26803;DHT22;14378;51.796;5.808;2022-08-04T08:30:50;28.30;99.90
26803;DHT22;14378;51.796;5.808;2022-08-04T08:32:54;28.30;99.90
26803;DHT22;14378;51.796;5.808;2022-08-04T08:34:56;28.50;99.90
26803;DHT22;14378;51.796;5.808;2022-08-04T08:39:39;28.70;99.90
26803;DHT22;14378;51.796;5.808;2022-08-04T08:46:37;29.20;99.90
26803;DHT22;14378;51.796;5.808;2022-08-04T08:49:00;29.40;99.90
26803;DHT22;14378;51.796;5.808;2022-08-04T09:00:44;29.80;99.90
26803;DHT22;14378;51.796;5.808;2022-08-04T09:10:01;30.30;99.90
26803;DHT22;14378;51.796;5.808;2022-08-04T09:12:21;30.40;99.90
26803;DHT22;14378;51.796;5.808;2022-08-04T09:15:17;30.40;99.90
26803;DHT22;14378;51.796;5.808;2022-08-04T09:17:04;30.40;99.90
26803;DHT22;14378;51.796;5.808;2022-08-04T09:21:50;30.70;99.90
26803;DHT22;14378;51.796;5.808;2022-08-04T09:26:22;30.80;99.90
26803;DHT22;14378;51.796;5.808;2022-08-04T09:28:34;30.80;99.90
26803;DHT22;14378;51.796;5.808;2022-08-04T09:30:58;30.70;99.90
26803;DHT22;14378;51.796;5.808;2022-08-04T09:40:20;31.30;99.90
26803;DHT22;14378;51.796;5.808;2022-08-04T09:47:38;31.50;99.90
26803;DHT22;14378;51.796;5.808;2022-08-04T09:52:16;31.60;99.40
26803;DHT22;14378;51.796;5.808;2022-08-04T10:00:09;31.80;99.90
26803;DHT22;14378;51.796;5.808;2022-08-04T10:02:15;31.80;99.40
26803;DHT22;14378;51.796;5.808;2022-08-04T10:04:17;31.80;98.50
26803;DHT22;14378;51.796;5.808;2022-08-04T10:06:43;31.90;99.20
26803;DHT22;14378;51.796;5.808;2022-08-04T10:11:35;31.90;98.60
26803;DHT22;14378;51.796;5.808;2022-08-04T10:16:18;31.70;98.00
26803;DHT22;14378;51.796;5.808;2022-08-04T10:21:08;31.50;97.70
26803;DHT22;14378;51.796;5.808;2022-08-04T10:25:50;31.30;98.50
26803;DHT22;14378;51.796;5.808;2022-08-04T10:28:10;31.20;98.30
26803;DHT22;14378;51.796;5.808;2022-08-04T10:30:15;31.00;97.70
26803;DHT22;14378;51.796;5.808;2022-08-04T10:32:40;31.00;98.10
26803;DHT22;14378;51.796;5.808;2022-08-04T10:35:01;30.80;97.40
26803;DHT22;14378;51.796;5.808;2022-08-04T10:37:22;30.60;97.20
26803;DHT22;14378;51.796;5.808;2022-08-04T10:39:46;30.40;97.80
26803;DHT22;14378;51.796;5.808;2022-08-04T10:42:24;30.20;97.80
26803;DHT22;14378;51.796;5.808;2022-08-04T10:45:07;30.00;98.10
26803;DHT22;14378;51.796;5.808;2022-08-04T10:47:18;29.90;98.80
26803;DHT22;14378;51.796;5.808;2022-08-04T10:49:59;29.80;99.20
26803;DHT22;14378;51.796;5.808;2022-08-04T10:54:38;29.50;99.40
26803;DHT22;14378;51.796;5.808;2022-08-04T10:56:52;29.10;99.90
26803;DHT22;14378;51.796;5.808;2022-08-04T10:59:05;28.70;99.90
26803;DHT22;14378;51.796;5.808;2022-08-04T11:01:19;28.20;99.90
26803;DHT22;14378;51.796;5.808;2022-08-04T11:03:29;28.00;99.90
26803;DHT22;14378;51.796;5.808;2022-08-04T11:05:54;27.60;99.90
26803;DHT22;14378;51.796;5.808;2022-08-04T11:08:00;27.40;99.90
26803;DHT22;14378;51.796;5.808;2022-08-04T11:10:05;27.40;99.90
26803;DHT22;14378;51.796;5.808;2022-08-04T11:12:16;27.30;99.90
26803;DHT22;14378;51.796;5.808;2022-08-04T11:14:28;27.20;99.90
26803;DHT22;14378;51.796;5.808;2022-08-04T11:16:55;27.20;99.90
26803;DHT22;14378;51.796;5.808;2022-08-04T11:19:24;27.10;99.90
26803;DHT22;14378;51.796;5.808;2022-08-04T11:21:38;27.10;99.90
26803;DHT22;14378;51.796;5.808;2022-08-04T11:23:58;27.10;99.90
26803;DHT22;14378;51.796;5.808;2022-08-04T11:26:04;27.00;99.90
26803;DHT22;14378;51.796;5.808;2022-08-04T11:30:37;27.00;99.90
26803;DHT22;14378;51.796;5.808;2022-08-04T11:35:06;26.90;99.90
26803;DHT22;14378;51.796;5.808;2022-08-04T11:37:14;26.90;99.90
26803;DHT22;14378;51.796;5.808;2022-08-04T11:39:41;26.80;99.90
26803;DHT22;14378;51.796;5.808;2022-08-04T11:46:38;26.70;99.90
26803;DHT22;14378;51.796;5.808;2022-08-04T11:48:49;26.60;99.90
26803;DHT22;14378;51.796;5.808;2022-08-04T11:50:53;26.60;99.90
26803;DHT22;14378;51.796;5.808;2022-08-04T11:52:57;26.50;99.90
26803;DHT22;14378;51.796;5.808;2022-08-04T11:55:06;26.40;99.90
26803;DHT22;14378;51.796;5.808;2022-08-04T11:57:08;26.40;99.90
26803;DHT22;14378;51.796;5.808;2022-08-04T11:59:11;26.40;99.90
26803;DHT22;14378;51.796;5.808;2022-08-04T12:01:33;26.40;99.90
26803;DHT22;14378;51.796;5.808;2022-08-04T12:04:04;26.30;99.90
26803;DHT22;14378;51.796;5.808;2022-08-04T12:08:50;26.30;99.90
26803;DHT22;14378;51.796;5.808;2022-08-04T12:18:23;26.40;99.90
26803;DHT22;14378;51.796;5.808;2022-08-04T12:20:33;26.70;99.90
26803;DHT22;14378;51.796;5.808;2022-08-04T12:22:45;26.80;99.90
26803;DHT22;14378;51.796;5.808;2022-08-04T12:24:52;27.00;99.90
26803;DHT22;14378;51.796;5.808;2022-08-04T12:27:02;27.10;99.90
26803;DHT22;14378;51.796;5.808;2022-08-04T12:29:05;27.20;99.90
26803;DHT22;14378;51.796;5.808;2022-08-04T12:31:17;27.40;99.90
26803;DHT22;14378;51.796;5.808;2022-08-04T12:35:58;27.90;99.90
26803;DHT22;14378;51.796;5.808;2022-08-04T12:38:28;28.10;99.90
26803;DHT22;14378;51.796;5.808;2022-08-04T12:40:44;28.40;99.90
26803;DHT22;14378;51.796;5.808;2022-08-04T12:43:04;28.70;99.90
26803;DHT22;14378;51.796;5.808;2022-08-04T12:45:11;28.90;99.90
26803;DHT22;14378;51.796;5.808;2022-08-04T12:47:13;29.00;99.90
26803;DHT22;14378;51.796;5.808;2022-08-04T12:49:16;29.00;99.90
26803;DHT22;14378;51.796;5.808;2022-08-04T12:51:18;29.00;99.90
26803;DHT22;14378;51.796;5.808;2022-08-04T12:53:25;29.10;99.90
26803;DHT22;14378;51.796;5.808;2022-08-04T12:55:29;29.10;99.90
26803;DHT22;14378;51.796;5.808;2022-08-04T12:57:33;29.10;99.90
26803;DHT22;14378;51.796;5.808;2022-08-04T12:59:47;29.10;99.90
26803;DHT22;14378;51.796;5.808;2022-08-04T13:01:49;29.10;99.90
26803;DHT22;14378;51.796;5.808;2022-08-04T13:03:59;29.00;99.90
26803;DHT22;14378;51.796;5.808;2022-08-04T13:06:06;28.90;99.90
26803;DHT22;14378;51.796;5.808;2022-08-04T13:08:10;28.80;99.90
26803;DHT22;14378;51.796;5.808;2022-08-04T13:10:14;28.80;99.90
26803;DHT22;14378;51.796;5.808;2022-08-04T13:12:25;28.70;99.90
26803;DHT22;14378;51.796;5.808;2022-08-04T13:14:32;28.70;99.90
26803;DHT22;14378;51.796;5.808;2022-08-04T13:16:35;28.80;99.90
26803;DHT22;14378;51.796;5.808;2022-08-04T13:18:46;28.90;99.90
26803;DHT22;14378;51.796;5.808;2022-08-04T13:20:49;29.10;99.90
26803;DHT22;14378;51.796;5.808;2022-08-04T13:22:51;29.20;99.90
26803;DHT22;14378;51.796;5.808;2022-08-04T13:25:02;29.20;99.90
26803;DHT22;14378;51.796;5.808;2022-08-04T13:27:09;29.20;99.90
26803;DHT22;14378;51.796;5.808;2022-08-04T13:29:13;29.10;99.90
26803;DHT22;14378;51.796;5.808;2022-08-04T13:31:20;29.20;99.90
26803;DHT22;14378;51.796;5.808;2022-08-04T13:33:30;29.30;99.90
26803;DHT22;14378;51.796;5.808;2022-08-04T13:35:33;29.40;99.90
26803;DHT22;14378;51.796;5.808;2022-08-04T13:37:38;29.60;99.90
26803;DHT22;14378;51.796;5.808;2022-08-04T13:39:50;29.70;99.90
26803;DHT22;14378;51.796;5.808;2022-08-04T13:41:56;29.70;99.90
26803;DHT22;14378;51.796;5.808;2022-08-04T13:44:02;29.80;99.90
26803;DHT22;14378;51.796;5.808;2022-08-04T13:46:05;29.80;99.90
26803;DHT22;14378;51.796;5.808;2022-08-04T13:48:08;30.00;99.90
26803;DHT22;14378;51.796;5.808;2022-08-04T13:50:20;30.20;99.90
26803;DHT22;14378;51.796;5.808;2022-08-04T13:52:27;30.20;99.90
26803;DHT22;14378;51.796;5.808;2022-08-04T13:54:46;30.40;99.90
26803;DHT22;14378;51.796;5.808;2022-08-04T13:56:50;30.40;99.90
26803;DHT22;14378;51.796;5.808;2022-08-04T13:58:55;30.50;99.90
26803;DHT22;14378;51.796;5.808;2022-08-04T14:03:05;30.80;99.90
26803;DHT22;14378;51.796;5.808;2022-08-04T14:05:22;30.90;99.90
26803;DHT22;14378;51.796;5.808;2022-08-04T14:07:25;31.20;99.90
26803;DHT22;14378;51.796;5.808;2022-08-04T14:09:28;31.40;99.90
26803;DHT22;14378;51.796;5.808;2022-08-04T14:11:46;31.50;99.90
26803;DHT22;14378;51.796;5.808;2022-08-04T14:13:48;31.70;99.90
26803;DHT22;14378;51.796;5.808;2022-08-04T14:15:50;31.60;99.90
26803;DHT22;14378;51.796;5.808;2022-08-04T14:17:52;31.70;99.90
26803;DHT22;14378;51.796;5.808;2022-08-04T14:19:54;31.80;99.90
26803;DHT22;14378;51.796;5.808;2022-08-04T14:21:55;31.90;99.90
26803;DHT22;14378;51.796;5.808;2022-08-04T14:23:57;32.00;99.90
26803;DHT22;14378;51.796;5.808;2022-08-04T14:25:58;32.10;99.90
26803;DHT22;14378;51.796;5.808;2022-08-04T14:28:02;32.30;99.90
26803;DHT22;14378;51.796;5.808;2022-08-04T14:32:27;32.40;99.90
26803;DHT22;14378;51.796;5.808;2022-08-04T14:34:29;32.40;99.90
26803;DHT22;14378;51.796;5.808;2022-08-04T14:36:40;32.30;99.90
26803;DHT22;14378;51.796;5.808;2022-08-04T14:39:07;32.20;99.90
26803;DHT22;14378;51.796;5.808;2022-08-04T14:41:11;32.10;99.90
26803;DHT22;14378;51.796;5.808;2022-08-04T14:43:17;32.00;99.90
26803;DHT22;14378;51.796;5.808;2022-08-04T14:45:30;32.00;99.90
26803;DHT22;14378;51.796;5.808;2022-08-04T14:47:45;32.00;99.90
26803;DHT22;14378;51.796;5.808;2022-08-04T14:49:53;31.90;99.90
26803;DHT22;14378;51.796;5.808;2022-08-04T14:51:59;31.80;99.90
26803;DHT22;14378;51.796;5.808;2022-08-04T14:54:03;31.80;99.90
26803;DHT22;14378;51.796;5.808;2022-08-04T14:56:06;31.70;99.90
26803;DHT22;14378;51.796;5.808;2022-08-04T14:58:17;31.60;99.90
26803;DHT22;14378;51.796;5.808;2022-08-04T15:00:34;31.60;99.90
26803;DHT22;14378;51.796;5.808;2022-08-04T15:02:38;31.50;99.90
26803;DHT22;14378;51.796;5.808;2022-08-04T15:04:41;31.50;99.90
26803;DHT22;14378;51.796;5.808;2022-08-04T15:06:42;31.40;99.90
26803;DHT22;14378;51.796;5.808;2022-08-04T15:08:44;31.40;99.90
26803;DHT22;14378;51.796;5.808;2022-08-04T15:10:47;31.30;99.90
26803;DHT22;14378;51.796;5.808;2022-08-04T15:12:49;31.20;99.90
26803;DHT22;14378;51.796;5.808;2022-08-04T15:14:51;31.20;99.90
26803;DHT22;14378;51.796;5.808;2022-08-04T15:16:53;31.20;99.90
26803;DHT22;14378;51.796;5.808;2022-08-04T15:18:55;31.20;99.90
26803;DHT22;14378;51.796;5.808;2022-08-04T15:21:00;31.10;99.90
26803;DHT22;14378;51.796;5.808;2022-08-04T15:23:02;31.00;99.80
26803;DHT22;14378;51.796;5.808;2022-08-04T15:25:06;31.00;99.90
26803;DHT22;14378;51.796;5.808;2022-08-04T15:27:08;31.00;99.90
26803;DHT22;14378;51.796;5.808;2022-08-04T15:29:22;30.90;99.90
26803;DHT22;14378;51.796;5.808;2022-08-04T15:31:26;30.80;99.20
26803;DHT22;14378;51.796;5.808;2022-08-04T15:33:28;30.70;99.90
26803;DHT22;14378;51.796;5.808;2022-08-04T15:35:30;30.60;99.90
26803;DHT22;14378;51.796;5.808;2022-08-04T15:37:51;30.50;99.80
26803;DHT22;14378;51.796;5.808;2022-08-04T15:40:03;30.50;99.70
26803;DHT22;14378;51.796;5.808;2022-08-04T15:47:17;30.20;99.60
26803;DHT22;14378;51.796;5.808;2022-08-04T15:49:22;30.20;99.80
26803;DHT22;14378;51.796;5.808;2022-08-04T15:51:26;30.10;99.90
26803;DHT22;14378;51.796;5.808;2022-08-04T15:55:53;29.90;99.90
26803;DHT22;14378;51.796;5.808;2022-08-04T15:58:02;29.90;99.30
26803;DHT22;14378;51.796;5.808;2022-08-04T16:00:12;29.80;99.20
26803;DHT22;14378;51.796;5.808;2022-08-04T16:04:29;29.70;99.90
26803;DHT22;14378;51.796;5.808;2022-08-04T16:10:52;29.70;99.80
26803;DHT22;14378;51.796;5.808;2022-08-04T16:12:55;29.70;99.90
26803;DHT22;14378;51.796;5.808;2022-08-04T16:15:35;29.70;99.60
26803;DHT22;14378;51.796;5.808;2022-08-04T16:17:39;29.60;99.40
26803;DHT22;14378;51.796;5.808;2022-08-04T16:21:55;29.70;99.60
26803;DHT22;14378;51.796;5.808;2022-08-04T16:24:39;29.60;98.90
26803;DHT22;14378;51.796;5.808;2022-08-04T16:26:41;29.60;99.70
26803;DHT22;14378;51.796;5.808;2022-08-04T16:28:42;29.50;99.30
26803;DHT22;14378;51.796;5.808;2022-08-04T16:30:43;29.50;99.60
26803;DHT22;14378;51.796;5.808;2022-08-04T16:32:47;29.50;99.30
26803;DHT22;14378;51.796;5.808;2022-08-04T16:35:00;29.50;99.90
26803;DHT22;14378;51.796;5.808;2022-08-04T16:37:09;29.40;98.70
26803;DHT22;14378;51.796;5.808;2022-08-04T16:39:17;29.40;98.70
26803;DHT22;14378;51.796;5.808;2022-08-04T16:41:40;29.30;98.80
26803;DHT22;14378;51.796;5.808;2022-08-04T16:43:42;29.20;98.90
26803;DHT22;14378;51.796;5.808;2022-08-04T16:45:54;29.20;99.50
26803;DHT22;14378;51.796;5.808;2022-08-04T16:48:06;29.10;99.10
26803;DHT22;14378;51.796;5.808;2022-08-04T16:50:10;29.10;98.90
26803;DHT22;14378;51.796;5.808;2022-08-04T16:52:15;29.00;98.50
26803;DHT22;14378;51.796;5.808;2022-08-04T16:54:20;28.90;98.20
26803;DHT22;14378;51.796;5.808;2022-08-04T16:56:30;28.90;98.40
26803;DHT22;14378;51.796;5.808;2022-08-04T16:58:34;28.80;98.50
26803;DHT22;14378;51.796;5.808;2022-08-04T17:00:36;28.70;98.10
26803;DHT22;14378;51.796;5.808;2022-08-04T17:02:38;28.60;98.40
26803;DHT22;14378;51.796;5.808;2022-08-04T17:04:39;28.60;98.60
26803;DHT22;14378;51.796;5.808;2022-08-04T17:06:42;28.50;98.20
26803;DHT22;14378;51.796;5.808;2022-08-04T17:08:46;28.50;99.10
26803;DHT22;14378;51.796;5.808;2022-08-04T17:10:48;28.40;98.80
26803;DHT22;14378;51.796;5.808;2022-08-04T17:12:49;28.40;98.70
26803;DHT22;14378;51.796;5.808;2022-08-04T17:14:51;28.40;98.40
26803;DHT22;14378;51.796;5.808;2022-08-04T17:16:58;28.30;98.90
26803;DHT22;14378;51.796;5.808;2022-08-04T17:19:00;28.20;99.20
26803;DHT22;14378;51.796;5.808;2022-08-04T17:21:10;28.20;99.10
26803;DHT22;14378;51.796;5.808;2022-08-04T17:23:28;28.10;98.80
26803;DHT22;14378;51.796;5.808;2022-08-04T17:25:30;28.10;98.20
26803;DHT22;14378;51.796;5.808;2022-08-04T17:27:31;28.00;98.50
26803;DHT22;14378;51.796;5.808;2022-08-04T17:29:34;27.90;98.30
26803;DHT22;14378;51.796;5.808;2022-08-04T17:31:37;27.70;98.30
26803;DHT22;14378;51.796;5.808;2022-08-04T17:33:46;27.60;98.70
26803;DHT22;14378;51.796;5.808;2022-08-04T17:35:47;27.50;98.60
26803;DHT22;14378;51.796;5.808;2022-08-04T17:37:49;27.40;98.90
26803;DHT22;14378;51.796;5.808;2022-08-04T17:39:50;27.40;98.80
26803;DHT22;14378;51.796;5.808;2022-08-04T17:41:55;27.30;99.10